createdAt,value
2018-05-24T00:01:09.428Z,91.50
2018-05-24T00:03:37.652Z,91.30
2018-05-24T00:06:05.131Z,91.30
2018-05-24T00:08:32.594Z,91.20
2018-05-24T00:11:00.070Z,91.20
2018-05-24T00:13:28.307Z,91.30
2018-05-24T00:15:55.800Z,91.30
2018-05-24T00:18:24.032Z,91.40
2018-05-24T00:20:51.511Z,91.40
2018-05-24T00:23:19.071Z,91.60
2018-05-24T00:25:46.580Z,91.70
2018-05-24T00:28:14.046Z,91.60
2018-05-24T00:30:41.533Z,91.60
2018-05-24T00:33:09.008Z,91.70
2018-05-24T00:35:37.241Z,91.50
2018-05-24T00:38:04.715Z,91.50
2018-05-24T00:48:24.972Z,91.60
2018-05-24T00:50:52.422Z,91.30
2018-05-24T00:53:19.985Z,91.30
2018-05-24T00:55:47.444Z,91.70
2018-05-24T00:58:15.695Z,91.40
2018-05-24T01:00:43.158Z,91.30
2018-05-24T01:03:10.670Z,91.10
2018-05-24T01:05:38.149Z,91.00
2018-05-24T01:15:44.294Z,91.00
2018-05-24T01:18:11.697Z,91.00
2018-05-24T01:20:39.209Z,91.10
2018-05-24T01:23:07.458Z,91.10
2018-05-24T01:25:34.916Z,91.10
2018-05-24T01:28:02.883Z,91.20
2018-05-24T01:30:30.342Z,91.10
2018-05-24T01:32:57.827Z,91.30
2018-05-24T01:35:26.097Z,91.40
2018-05-24T01:37:53.525Z,91.40
2018-05-24T01:40:21.016Z,91.40
2018-05-24T01:42:49.244Z,91.70
2018-05-24T01:45:16.731Z,91.60
2018-05-24T01:47:44.182Z,91.50
2018-05-24T01:50:11.651Z,91.60
2018-05-24T01:52:39.899Z,91.70
2018-05-24T01:55:07.477Z,91.70
2018-05-24T01:57:34.946Z,91.60
2018-05-24T02:00:03.178Z,91.60
2018-05-24T02:02:30.642Z,91.60
2018-05-24T02:04:58.124Z,91.40
2018-05-24T02:07:25.600Z,91.70
2018-05-24T02:09:53.069Z,92.00
2018-05-24T02:12:20.530Z,91.70
2018-05-24T02:14:48.032Z,91.60
2018-05-24T02:17:15.900Z,91.70
2018-05-24T02:19:43.419Z,91.80
2018-05-24T02:22:10.872Z,92.10
2018-05-24T02:24:38.346Z,92.20
2018-05-24T02:27:05.807Z,92.20
2018-05-24T02:29:33.283Z,92.30
2018-05-24T02:32:00.765Z,92.30
2018-05-24T02:34:29.021Z,92.50
2018-05-24T02:36:56.480Z,92.50
2018-05-24T02:39:23.948Z,92.30
2018-05-24T02:41:52.208Z,92.10
2018-05-24T02:44:19.677Z,92.10
2018-05-24T02:46:47.915Z,91.50
2018-05-24T02:49:15.383Z,91.50
2018-05-24T02:51:42.876Z,91.60
2018-05-24T02:54:10.343Z,91.70
2018-05-24T02:56:37.828Z,91.80
2018-05-24T02:59:05.306Z,91.80
2018-05-24T03:01:32.794Z,92.00
2018-05-24T03:04:01.031Z,91.80
2018-05-24T03:06:28.504Z,91.80
2018-05-24T03:08:55.991Z,91.80
2018-05-24T03:11:23.478Z,91.60
2018-05-24T03:13:50.940Z,91.50
2018-05-24T03:16:18.493Z,91.70
2018-05-24T03:18:45.891Z,91.00
2018-05-24T03:21:13.373Z,91.00
2018-05-24T03:23:40.826Z,91.10
2018-05-24T03:26:08.306Z,91.10
2018-05-24T03:28:35.772Z,91.20
2018-05-24T03:31:03.235Z,91.20
2018-05-24T03:33:30.799Z,91.00
2018-05-24T03:35:58.329Z,91.20
2018-05-24T03:38:25.831Z,91.70
2018-05-24T03:40:53.297Z,91.90
2018-05-24T03:43:20.782Z,91.80
2018-05-24T03:45:48.994Z,92.10
2018-05-24T03:48:16.467Z,92.10
2018-05-24T03:50:43.954Z,91.80
2018-05-24T03:53:12.186Z,91.50
2018-05-24T03:55:39.658Z,91.50
2018-05-24T03:58:07.135Z,91.50
2018-05-24T04:00:47.300Z,91.20
2018-05-24T04:03:26.779Z,91.20
2018-05-24T04:05:54.348Z,91.40
2018-05-24T04:08:21.825Z,91.40
2018-05-24T04:10:50.373Z,91.40
2018-05-24T04:13:17.896Z,91.40
2018-05-24T04:15:45.375Z,91.30
2018-05-24T04:18:12.953Z,91.60
2018-05-24T04:20:40.511Z,91.60
2018-05-24T04:23:08.008Z,91.90
2018-05-24T04:25:35.507Z,91.90
2018-05-24T04:28:02.967Z,91.90
2018-05-24T04:30:30.544Z,91.70
2018-05-24T04:32:58.071Z,91.80
2018-05-24T04:35:26.281Z,91.70
2018-05-24T04:37:53.837Z,91.90
2018-05-24T04:40:21.331Z,91.90
2018-05-24T04:42:48.829Z,91.50
2018-05-24T04:45:16.323Z,91.60
2018-05-24T04:47:44.556Z,91.70
2018-05-24T04:50:12.549Z,91.70
2018-05-24T04:52:42.766Z,92.00
2018-05-24T04:55:10.246Z,92.00
2018-05-24T04:57:37.728Z,91.80
2018-05-24T05:00:05.193Z,91.70
2018-05-24T05:02:32.780Z,91.70
2018-05-24T05:05:00.364Z,91.60
2018-05-24T05:07:28.118Z,91.50
2018-05-24T05:09:55.628Z,91.50
2018-05-24T05:12:23.128Z,91.60
2018-05-24T05:14:50.606Z,91.70
2018-05-24T05:17:18.935Z,91.30
2018-05-24T05:19:46.620Z,91.30
2018-05-24T05:22:14.083Z,91.20
2018-05-24T05:24:41.794Z,90.70
2018-05-24T05:27:09.302Z,90.70
2018-05-24T05:29:36.769Z,90.30
2018-05-24T05:32:04.254Z,90.00
2018-05-24T05:34:31.747Z,90.00
2018-05-24T05:36:59.313Z,90.00
2018-05-24T05:39:26.976Z,90.10
2018-05-24T05:41:54.452Z,90.30
2018-05-24T05:44:22.473Z,90.20
2018-05-24T05:46:49.955Z,90.10
2018-05-24T05:49:17.443Z,90.10
2018-05-24T05:51:45.719Z,90.00
2018-05-24T05:54:13.972Z,89.50
2018-05-24T05:56:41.607Z,89.40
2018-05-24T05:59:09.088Z,90.00
2018-05-24T06:01:36.834Z,90.20
2018-05-24T06:04:04.304Z,90.10
2018-05-24T06:06:31.875Z,90.10
2018-05-24T06:08:59.362Z,90.10
2018-05-24T06:11:27.607Z,90.10
2018-05-24T06:13:55.970Z,89.30
2018-05-24T06:16:23.349Z,89.10
2018-05-24T06:18:51.611Z,88.30
2018-05-24T06:21:19.162Z,88.20
2018-05-24T06:23:46.640Z,88.50
2018-05-24T06:26:14.879Z,87.10
2018-05-24T06:28:42.360Z,87.00
2018-05-24T06:31:10.611Z,86.50
2018-05-24T06:33:38.095Z,86.90
2018-05-24T06:36:06.333Z,86.30
2018-05-24T06:38:33.807Z,86.30
2018-05-24T06:41:01.333Z,87.30
2018-05-24T06:43:28.816Z,86.70
2018-05-24T06:45:56.314Z,85.80
2018-05-24T06:48:23.832Z,86.60
2018-05-24T06:50:51.326Z,85.90
2018-05-24T06:53:18.803Z,85.30
2018-05-24T06:55:46.303Z,85.00
2018-05-24T06:58:13.791Z,85.50
2018-05-24T07:00:41.276Z,84.30
2018-05-24T07:03:08.768Z,84.10
2018-05-24T07:05:36.238Z,83.70
2018-05-24T07:08:03.751Z,83.60
2018-05-24T07:10:31.222Z,84.60
2018-05-24T07:12:58.715Z,84.40
2018-05-24T07:15:26.955Z,83.60
2018-05-24T07:17:54.449Z,83.60
2018-05-24T07:20:22.696Z,82.70
2018-05-24T07:22:50.161Z,82.60
2018-05-24T07:25:17.647Z,82.60
2018-05-24T07:27:45.131Z,81.90
2018-05-24T07:30:12.652Z,82.60
2018-05-24T07:32:40.900Z,84.20
2018-05-24T07:35:08.385Z,84.10
2018-05-24T07:37:36.648Z,84.90
2018-05-24T07:40:04.111Z,84.90
2018-05-24T07:42:32.379Z,83.90
2018-05-24T07:45:00.725Z,83.10
2018-05-24T07:47:28.203Z,83.10
2018-05-24T07:49:55.703Z,83.70
2018-05-24T07:52:23.171Z,81.20
2018-05-24T07:54:50.760Z,82.40
2018-05-24T07:57:18.410Z,81.60
2018-05-24T07:59:45.900Z,81.50
2018-05-24T08:02:14.147Z,79.80
2018-05-24T08:04:42.262Z,79.80
2018-05-24T08:07:09.750Z,78.40
2018-05-24T08:09:37.240Z,78.00
2018-05-24T08:12:04.769Z,76.50
2018-05-24T08:14:32.393Z,77.30
2018-05-24T08:16:59.868Z,76.40
2018-05-24T08:19:27.461Z,77.70
2018-05-24T08:21:55.060Z,76.80
2018-05-24T08:24:22.567Z,75.70
2018-05-24T08:26:50.081Z,73.50
2018-05-24T08:29:18.319Z,75.50
2018-05-24T08:31:45.824Z,75.50
2018-05-24T08:34:13.308Z,75.60
2018-05-24T08:36:40.816Z,74.50
2018-05-24T08:39:09.070Z,71.30
2018-05-24T08:41:36.556Z,71.20
2018-05-24T08:44:04.025Z,69.40
2018-05-24T08:46:31.519Z,65.30
2018-05-24T08:48:59.022Z,64.80
2018-05-24T08:51:27.251Z,66.50
2018-05-24T08:53:54.747Z,66.50
2018-05-24T08:56:22.998Z,69.00
2018-05-24T08:58:50.498Z,69.00
2018-05-24T09:01:18.045Z,68.00
2018-05-24T09:03:45.463Z,67.40
2018-05-24T09:06:12.927Z,67.50
2018-05-24T09:08:41.188Z,66.80
2018-05-24T09:11:08.691Z,66.70
2018-05-24T09:13:36.235Z,68.70
2018-05-24T09:16:03.844Z,69.00
2018-05-24T09:18:32.125Z,69.60
2018-05-24T09:20:59.635Z,69.60
2018-05-24T09:23:27.231Z,70.20
2018-05-24T09:25:54.732Z,71.40
2018-05-24T09:28:23.108Z,72.70
2018-05-24T09:30:50.679Z,72.70
2018-05-24T09:33:18.299Z,72.90
2018-05-24T09:35:45.838Z,73.20
2018-05-24T09:38:13.354Z,73.30
2018-05-24T09:40:40.993Z,73.40
2018-05-24T09:43:09.282Z,74.60
2018-05-24T09:45:37.611Z,73.70
2018-05-24T09:48:05.223Z,73.70
2018-05-24T09:50:33.603Z,73.00
2018-05-24T09:53:01.385Z,72.90
2018-05-24T09:55:28.979Z,72.50
2018-05-24T09:57:56.478Z,71.30
2018-05-24T10:00:24.046Z,70.70
2018-05-24T10:02:51.528Z,70.40
2018-05-24T10:05:19.046Z,70.90
2018-05-24T10:07:47.284Z,70.00
2018-05-24T10:10:14.772Z,69.90
2018-05-24T10:12:43.031Z,69.50
2018-05-24T10:15:11.309Z,70.00
2018-05-24T10:17:38.933Z,69.90
2018-05-24T10:20:06.410Z,69.30
2018-05-24T10:22:33.916Z,68.50
2018-05-24T10:25:01.408Z,69.80
2018-05-24T10:27:28.937Z,70.40
2018-05-24T10:29:56.412Z,68.80
2018-05-24T10:32:23.899Z,66.10
2018-05-24T10:34:51.411Z,65.20
2018-05-24T10:37:18.915Z,63.60
2018-05-24T10:39:47.188Z,63.60
2018-05-24T10:42:15.449Z,63.90
2018-05-24T10:44:42.942Z,63.70
2018-05-24T10:47:11.208Z,58.30
2018-05-24T10:49:39.696Z,59.20
2018-05-24T10:52:07.926Z,58.70
2018-05-24T10:54:35.407Z,58.60
2018-05-24T10:57:03.724Z,53.90
2018-05-24T10:59:31.146Z,53.70
2018-05-24T11:01:59.611Z,54.70
2018-05-24T11:04:27.188Z,54.50
2018-05-24T11:06:55.442Z,52.50
2018-05-24T11:09:22.923Z,52.40
2018-05-24T11:11:51.178Z,50.90
2018-05-24T11:14:19.406Z,53.20
2018-05-24T11:16:46.924Z,53.30
2018-05-24T11:19:15.197Z,51.20
2018-05-24T11:21:43.543Z,48.80
2018-05-24T11:24:11.051Z,48.70
2018-05-24T11:26:38.532Z,46.30
2018-05-24T11:29:06.028Z,45.00
2018-05-24T11:31:34.275Z,47.50
2018-05-24T11:34:01.782Z,47.50
2018-05-24T11:36:29.297Z,50.80
2018-05-24T11:38:56.841Z,44.70
2018-05-24T11:41:24.307Z,44.40
2018-05-24T11:43:51.885Z,47.60
2018-05-24T11:46:19.455Z,48.60
2018-05-24T11:48:47.720Z,47.20
2018-05-24T11:51:16.100Z,47.80
2018-05-24T11:53:44.343Z,51.10
2018-05-24T11:56:11.850Z,51.30
2018-05-24T11:58:40.117Z,49.10
2018-05-24T12:01:07.594Z,49.00
2018-05-24T12:03:35.822Z,46.40
2018-05-24T12:06:03.332Z,46.40
2018-05-24T12:08:30.937Z,43.40
2018-05-24T12:10:58.594Z,44.20
2018-05-24T12:13:26.116Z,43.80
2018-05-24T12:15:53.600Z,46.80
2018-05-24T12:18:21.084Z,46.70
2018-05-24T12:20:48.761Z,49.90
2018-05-24T12:23:17.123Z,51.30
2018-05-24T12:25:45.387Z,51.10
2018-05-24T12:28:12.924Z,51.00
2018-05-24T12:30:40.391Z,53.50
2018-05-24T12:33:08.386Z,52.80
2018-05-24T12:35:36.713Z,53.10
2018-05-24T12:38:04.159Z,53.20
2018-05-24T12:40:32.142Z,52.70
2018-05-24T12:42:59.618Z,50.40
2018-05-24T12:45:27.934Z,56.00
2018-05-24T12:47:55.443Z,56.00
2018-05-24T12:50:22.957Z,57.40
2018-05-24T12:52:50.539Z,60.00
2018-05-24T12:55:17.934Z,59.90
2018-05-24T12:57:46.203Z,58.80
2018-05-24T13:00:13.710Z,58.80
2018-05-24T13:02:41.238Z,57.70
2018-05-24T13:05:08.752Z,59.70
2018-05-24T13:07:36.252Z,61.50
2018-05-24T13:10:03.770Z,64.40
2018-05-24T13:12:32.752Z,69.00
2018-05-24T13:15:00.273Z,68.80
2018-05-24T13:17:27.749Z,72.70
2018-05-24T13:19:55.255Z,72.40
2018-05-24T13:22:22.773Z,71.50
2018-05-24T13:24:50.283Z,72.70
2018-05-24T13:27:18.565Z,70.50
2018-05-24T13:29:46.888Z,72.10
2018-05-24T13:32:14.631Z,72.20
2018-05-24T13:34:42.133Z,76.10
2018-05-24T13:37:10.351Z,76.90
2018-05-24T13:39:38.379Z,75.60
2018-05-24T13:42:06.767Z,72.50
2018-05-24T13:44:35.040Z,69.90
2018-05-24T13:47:03.371Z,71.60
2018-05-24T13:49:30.928Z,71.60
2018-05-24T13:51:58.629Z,72.70
2018-05-24T13:54:27.016Z,71.70
2018-05-24T13:56:55.289Z,71.60
2018-05-24T13:59:23.576Z,74.00
2018-05-24T14:01:51.913Z,74.00
2018-05-24T14:04:19.303Z,74.00
2018-05-24T14:06:46.777Z,75.30
2018-05-24T14:09:14.338Z,71.00
2018-05-24T14:11:41.815Z,68.60
2018-05-24T14:14:09.400Z,62.40
2018-05-24T14:16:38.172Z,54.20
2018-05-24T14:19:05.700Z,54.30
2018-05-24T14:21:33.300Z,52.20
2018-05-24T14:24:01.091Z,52.90
2018-05-24T14:26:29.502Z,54.70
2018-05-24T14:28:57.140Z,54.60
2018-05-24T14:31:25.991Z,54.50
2018-05-24T14:33:54.271Z,55.00
2018-05-24T14:36:23.321Z,54.80
2018-05-24T14:38:50.934Z,54.80
2018-05-24T14:41:18.433Z,56.60
2018-05-24T14:43:46.105Z,55.90
2018-05-24T14:46:13.652Z,57.00
2018-05-24T14:48:41.143Z,59.40
2018-05-24T14:51:08.781Z,59.70
2018-05-24T14:53:36.380Z,56.40
2018-05-24T14:56:04.640Z,53.80
2018-05-24T14:58:32.180Z,53.80
2018-05-24T15:00:59.680Z,55.40
2018-05-24T15:03:27.189Z,54.50
2018-05-24T15:05:54.774Z,53.90
2018-05-24T15:08:22.272Z,53.50
2018-05-24T15:10:49.754Z,51.00
2018-05-24T15:13:29.056Z,49.10
2018-05-24T15:15:57.320Z,51.50
2018-05-24T15:18:25.640Z,54.10
2018-05-24T15:20:53.868Z,57.80
2018-05-24T15:23:22.122Z,60.00
2018-05-24T15:25:51.112Z,62.00
2018-05-24T15:28:19.352Z,64.00
2018-05-24T15:30:46.936Z,64.00
2018-05-24T15:33:14.431Z,66.20
2018-05-24T15:35:42.720Z,69.20
2018-05-24T15:38:10.344Z,69.30
2018-05-24T15:40:37.884Z,69.80
2018-05-24T15:43:05.483Z,70.00
2018-05-24T15:45:33.721Z,72.80
2018-05-24T15:48:01.304Z,72.70
2018-05-24T15:50:29.145Z,73.60
2018-05-24T15:52:56.898Z,74.80
2018-05-24T15:55:24.430Z,76.40
2018-05-24T15:57:52.409Z,76.50
2018-05-24T16:00:19.902Z,77.10
2018-05-24T16:02:47.433Z,79.30
2018-05-24T16:05:15.042Z,78.60
2018-05-24T16:07:43.438Z,78.90
2018-05-24T16:10:10.945Z,78.90
2018-05-24T16:12:38.528Z,79.40
2018-05-24T16:15:07.054Z,83.00
2018-05-24T16:17:34.551Z,83.10
2018-05-24T16:20:02.056Z,81.50
2018-05-24T16:22:29.585Z,81.10
2018-05-24T16:24:57.892Z,83.10
2018-05-24T16:27:25.427Z,83.10
2018-05-24T16:29:53.844Z,80.90
2018-05-24T16:32:21.354Z,80.90
2018-05-24T16:34:49.621Z,82.00
2018-05-24T16:37:17.180Z,81.80
2018-05-24T16:39:45.463Z,83.50
2018-05-24T16:42:13.814Z,82.80
2018-05-24T16:44:41.311Z,82.80
2018-05-24T16:47:09.038Z,85.10
2018-05-24T16:49:36.560Z,84.10
2018-05-24T16:52:04.044Z,84.40
2018-05-24T16:54:32.429Z,85.30
2018-05-24T16:56:59.959Z,85.20
2018-05-24T16:59:27.486Z,86.10
2018-05-24T17:01:55.216Z,85.90
2018-05-24T17:04:22.744Z,87.00
2018-05-24T17:06:50.350Z,86.80
2018-05-24T17:09:18.768Z,87.70
2018-05-24T17:11:46.285Z,87.70
2018-05-24T17:14:14.545Z,88.60
2018-05-24T17:16:42.091Z,88.50
2018-05-24T17:19:09.651Z,88.40
2018-05-24T17:21:37.285Z,88.30
2018-05-24T17:24:04.777Z,88.90
2018-05-24T17:26:33.173Z,88.80
2018-05-24T17:29:01.637Z,88.70
2018-05-24T17:31:29.896Z,89.20
2018-05-24T17:33:57.505Z,89.20
2018-05-24T17:36:25.064Z,88.50
2018-05-24T17:38:52.579Z,88.60
2018-05-24T17:41:20.233Z,89.60
2018-05-24T17:43:47.744Z,88.80
2018-05-24T17:46:15.323Z,89.60
2018-05-24T17:48:43.030Z,90.00
2018-05-24T17:51:11.309Z,90.40
2018-05-24T17:53:38.874Z,90.40
2018-05-24T17:56:07.136Z,90.50
2018-05-24T17:58:35.490Z,90.30
2018-05-24T18:01:03.083Z,90.20
2018-05-24T18:03:30.630Z,90.30
2018-05-24T18:05:58.886Z,90.20
2018-05-24T18:08:26.429Z,90.20
2018-05-24T18:10:54.018Z,90.50
2018-05-24T18:13:22.324Z,90.40
2018-05-24T18:15:49.929Z,90.40
2018-05-24T18:18:18.244Z,90.50
2018-05-24T18:20:46.522Z,90.80
2018-05-24T18:23:14.014Z,90.80
2018-05-24T18:25:41.560Z,90.60
2018-05-24T18:28:09.100Z,90.70
2018-05-24T18:30:36.615Z,90.70
2018-05-24T18:33:04.138Z,90.80
2018-05-24T18:35:31.768Z,90.60
2018-05-24T18:37:59.349Z,91.00
2018-05-24T18:40:26.873Z,90.70
2018-05-24T18:42:55.317Z,91.00
2018-05-24T18:45:23.544Z,91.00
2018-05-24T18:47:51.074Z,91.00
2018-05-24T18:50:19.370Z,91.10
2018-05-24T18:52:46.995Z,91.10
2018-05-24T18:55:15.332Z,91.00
2018-05-24T18:57:42.900Z,91.00
2018-05-24T19:00:10.483Z,90.70
2018-05-24T19:02:38.001Z,90.70
2018-05-24T19:05:05.632Z,90.70
2018-05-24T19:07:33.198Z,90.80
2018-05-24T19:10:00.684Z,90.60
2018-05-24T19:12:28.952Z,90.80
2018-05-24T19:14:56.435Z,90.80
2018-05-24T19:17:23.929Z,91.00
2018-05-24T19:19:52.233Z,91.80
2018-05-24T19:22:19.882Z,91.80
2018-05-24T19:24:47.392Z,91.90
2018-05-24T19:27:15.052Z,91.70
2018-05-24T19:29:42.761Z,91.70
2018-05-24T19:32:10.389Z,91.80
2018-05-24T19:34:38.692Z,92.10
2018-05-24T19:37:06.242Z,91.80
2018-05-24T19:39:34.716Z,91.10
2018-05-24T19:42:02.982Z,91.30
2018-05-24T19:44:31.255Z,91.40
2018-05-24T19:46:59.624Z,91.80
2018-05-24T19:49:27.902Z,92.10
2018-05-24T19:51:56.242Z,92.00
2018-05-24T19:54:23.748Z,92.20
2018-05-24T19:56:52.035Z,91.30
2018-05-24T19:59:19.521Z,91.20
2018-05-24T20:01:47.048Z,91.50
2018-05-24T20:04:14.546Z,91.60
2018-05-24T20:06:42.075Z,92.20
2018-05-24T20:09:09.718Z,92.30
2018-05-24T20:11:38.224Z,92.70
2018-05-24T20:14:05.949Z,92.70
2018-05-24T20:16:34.410Z,92.90
2018-05-24T20:19:01.953Z,92.90
2018-05-24T20:21:29.437Z,93.10
2018-05-24T20:23:57.735Z,93.10
2018-05-24T20:26:25.253Z,93.10
2018-05-24T20:28:52.832Z,92.40
2018-05-24T20:31:21.108Z,91.80
2018-05-24T20:33:49.555Z,91.40
2018-05-24T20:36:17.048Z,91.40
2018-05-24T20:38:44.704Z,91.20
2018-05-24T20:41:13.005Z,91.30
2018-05-24T20:43:40.495Z,91.30
2018-05-24T20:46:08.078Z,91.10
2018-05-24T20:48:35.671Z,91.20
2018-05-24T20:51:03.172Z,91.00
2018-05-24T20:53:30.660Z,90.90
2018-05-24T20:55:59.008Z,90.70
2018-05-24T20:58:26.776Z,90.70
2018-05-24T21:00:54.285Z,90.70
2018-05-24T21:03:22.413Z,90.20
2018-05-24T21:05:49.933Z,90.10
2018-05-24T21:08:17.536Z,89.70
2018-05-24T21:10:45.154Z,90.10
2018-05-24T21:13:12.674Z,89.90
2018-05-24T21:15:40.913Z,90.50
2018-05-24T21:18:09.066Z,90.50
2018-05-24T21:20:37.233Z,90.60
2018-05-24T21:23:04.739Z,91.00
2018-05-24T21:25:33.175Z,91.40
2018-05-24T21:28:00.778Z,91.40
2018-05-24T21:30:29.251Z,91.90
2018-05-24T21:32:56.728Z,91.90
2018-05-24T21:35:24.940Z,92.20
2018-05-24T21:37:52.562Z,91.70
2018-05-24T21:40:20.044Z,91.20
2018-05-24T21:42:47.543Z,91.00
2018-05-24T21:45:15.784Z,91.20
2018-05-24T21:47:43.301Z,90.90
2018-05-24T21:50:10.904Z,90.90
2018-05-24T21:52:38.502Z,91.40
2018-05-24T21:55:06.758Z,92.20
2018-05-24T21:57:34.251Z,92.20
2018-05-24T22:00:01.750Z,92.40
2018-05-24T22:02:29.241Z,92.60
2018-05-24T22:04:57.501Z,92.70
2018-05-24T22:07:25.034Z,92.80
2018-05-24T22:09:52.532Z,93.10
2018-05-24T22:12:20.784Z,92.40
2018-05-24T22:14:48.780Z,92.40
2018-05-24T22:17:17.124Z,91.50
2018-05-24T22:19:44.603Z,91.50
2018-05-24T22:22:12.901Z,91.60
2018-05-24T22:24:41.046Z,91.60
2018-05-24T22:27:09.328Z,91.30
2018-05-24T22:29:37.590Z,91.30
2018-05-24T22:32:05.871Z,91.10
2018-05-24T22:34:34.135Z,91.30
2018-05-24T22:37:01.767Z,91.30
2018-05-24T22:39:29.297Z,91.50
2018-05-24T22:41:57.731Z,92.00
2018-05-24T22:44:25.265Z,91.90
2018-05-24T22:46:52.849Z,92.30
2018-05-24T22:49:21.118Z,92.70
2018-05-24T22:51:48.681Z,92.60
2018-05-24T22:54:16.174Z,92.50
2018-05-24T22:56:43.854Z,92.60
2018-05-24T22:59:11.488Z,92.70
2018-05-24T23:01:39.010Z,92.10
2018-05-24T23:04:06.991Z,92.40
2018-05-24T23:06:35.240Z,92.40
2018-05-24T23:09:02.735Z,92.40
2018-05-24T23:11:30.988Z,92.40
2018-05-24T23:13:58.542Z,92.40
2018-05-24T23:16:26.038Z,92.40
2018-05-24T23:18:53.778Z,92.50
2018-05-24T23:21:22.060Z,92.60
2018-05-24T23:23:50.292Z,92.50
2018-05-24T23:26:17.807Z,92.40
2018-05-24T23:28:45.343Z,92.40
2018-05-24T23:31:13.591Z,92.70
2018-05-24T23:33:41.145Z,92.70
2018-05-24T23:36:08.621Z,92.50
2018-05-24T23:38:36.881Z,92.70
2018-05-24T23:41:04.387Z,92.50
2018-05-24T23:43:31.920Z,92.30
2018-05-24T23:46:00.320Z,92.20
2018-05-24T23:48:27.834Z,92.20
2018-05-24T23:50:55.376Z,92.30
2018-05-24T23:53:23.447Z,91.90
2018-05-24T23:55:51.087Z,91.80
2018-05-24T23:58:18.672Z,91.50
